Franzen, Wisconsin
Current Conditions -  °F | °C
As of 1:15 AM on Thursday 23 Oct 2014 (Local Time) from KAIG Reporting Station
Haze Haze  
Wind Chill: 30°   Ceiling: 200
Heat Index: 36°   Visibility: 3mi
Dew Point: 36°   Wind: 8mph
Humidity: 100%   Direction: 160°SSE
Pressure: 30.17"   Gusts: NA
Location:  44.8179°N, 89.172°W
Report Text: KAIG 230615Z AUTO 16007KT 3SM BR BKN002 02/02 A3017 RMK AO2 T00220022
Loading
Personal Weather Stations






























Interactive Weather Map
Tropical Storm Tracking
New forecast layout! Learn more

10-Day Weather Forecast

Advertisements
Track Severe Weather on mobile